createdAt,value
2023-04-07T00:02:03.160Z,8.50
2023-04-07T00:04:36.820Z,8.37
2023-04-07T00:07:03.706Z,8.67
2023-04-07T00:09:30.706Z,9.50
2023-04-07T00:11:57.486Z,8.27
2023-04-07T00:14:24.215Z,8.30
2023-04-07T00:16:51.048Z,9.00
2023-04-07T00:19:17.772Z,8.63
2023-04-07T00:21:44.453Z,7.57
2023-04-07T00:24:12.935Z,7.30
2023-04-07T00:26:41.264Z,6.73
2023-04-07T00:29:08.063Z,6.20
2023-04-07T00:31:34.796Z,7.90
2023-04-07T00:34:01.770Z,7.17
2023-04-07T00:36:28.950Z,7.17
2023-04-07T00:38:55.938Z,7.07
2023-04-07T00:41:22.729Z,7.67
2023-04-07T00:43:53.441Z,7.20
2023-04-07T00:46:23.832Z,7.57
2023-04-07T00:48:50.787Z,6.80
2023-04-07T00:51:20.116Z,7.50
2023-04-07T00:53:46.915Z,8.00
2023-04-07T00:56:13.927Z,7.40
2023-04-07T00:58:40.800Z,7.17
2023-04-07T01:01:19.222Z,7.70
2023-04-07T01:03:53.626Z,7.63
2023-04-07T01:06:26.148Z,7.93
2023-04-07T01:09:06.563Z,7.67
2023-04-07T01:11:58.408Z,9.07
2023-04-07T01:14:28.118Z,8.80
2023-04-07T01:16:57.763Z,9.30
2023-04-07T01:19:48.967Z,9.57
2023-04-07T01:22:24.875Z,9.43
2023-04-07T01:25:16.128Z,9.13
2023-04-07T01:28:24.448Z,9.03
2023-04-07T01:30:54.524Z,9.53
2023-04-07T01:33:22.085Z,8.37
2023-04-07T01:35:50.383Z,10.10
2023-04-07T01:38:17.949Z,9.97
2023-04-07T01:40:45.921Z,10.60
2023-04-07T01:43:13.731Z,10.30
2023-04-07T01:45:41.721Z,9.47
2023-04-07T01:48:09.284Z,10.27
2023-04-07T01:50:37.286Z,10.23
2023-04-07T01:53:04.895Z,9.53
2023-04-07T01:55:32.646Z,9.70
2023-04-07T01:58:03.742Z,9.67
2023-04-07T02:00:30.532Z,9.93
2023-04-07T02:03:10.670Z,10.57
2023-04-07T02:05:39.792Z,9.40
2023-04-07T02:08:08.830Z,9.70
2023-04-07T02:10:37.543Z,15.97
2023-04-07T02:13:07.129Z,8.97
2023-04-07T02:15:36.056Z,11.63
2023-04-07T02:18:04.637Z,12.07
2023-04-07T02:20:32.288Z,11.50
2023-04-07T02:22:59.230Z,11.87
2023-04-07T02:25:28.322Z,13.67
2023-04-07T02:27:57.164Z,12.97
2023-04-07T02:30:24.902Z,17.13
2023-04-07T02:32:52.183Z,11.03
2023-04-07T02:35:19.370Z,12.10
2023-04-07T02:37:47.349Z,12.30
2023-04-07T02:40:14.733Z,10.47
2023-04-07T02:42:41.708Z,10.40
2023-04-07T02:45:10.106Z,9.30
2023-04-07T02:47:37.774Z,9.53
2023-04-07T02:50:05.364Z,10.73
2023-04-07T02:52:32.187Z,10.80
2023-04-07T02:54:59.004Z,10.70
2023-04-07T02:57:25.936Z,10.43
2023-04-07T02:59:52.763Z,10.77
2023-04-07T03:02:19.567Z,10.90
2023-04-07T03:04:46.334Z,10.47
2023-04-07T03:07:13.021Z,9.73
2023-04-07T03:09:39.699Z,9.03
2023-04-07T03:12:06.624Z,11.40
2023-04-07T03:14:33.357Z,10.20
2023-04-07T03:17:00.539Z,9.67
2023-04-07T03:19:27.397Z,10.60
2023-04-07T03:21:54.131Z,10.50
2023-04-07T03:24:21.095Z,10.40
2023-04-07T03:26:47.830Z,10.13
2023-04-07T03:29:14.708Z,9.93
2023-04-07T03:31:41.701Z,11.10
2023-04-07T03:34:08.560Z,9.80
2023-04-07T03:36:35.344Z,8.60
2023-04-07T03:39:02.046Z,11.77
2023-04-07T03:41:28.802Z,10.27
2023-04-07T03:43:55.621Z,9.57
2023-04-07T03:46:22.522Z,10.80
2023-04-07T03:48:49.348Z,10.50
2023-04-07T03:51:16.269Z,10.47
2023-04-07T03:53:43.080Z,11.07
2023-04-07T03:56:09.918Z,11.03
2023-04-07T03:58:36.744Z,12.47
2023-04-07T04:01:03.685Z,11.03
2023-04-07T04:03:30.587Z,11.13
2023-04-07T04:05:57.494Z,11.27
2023-04-07T04:08:24.212Z,12.47
2023-04-07T04:10:51.277Z,10.53
2023-04-07T04:13:18.046Z,11.53
2023-04-07T04:15:44.797Z,11.10
2023-04-07T04:18:11.484Z,10.40
2023-04-07T04:20:38.295Z,10.47
2023-04-07T04:23:05.018Z,10.90
2023-04-07T04:25:31.848Z,10.47
2023-04-07T04:27:58.718Z,12.40
2023-04-07T04:30:25.457Z,11.30
2023-04-07T04:32:52.279Z,10.33
2023-04-07T04:35:19.022Z,11.23
2023-04-07T04:37:45.730Z,11.43
2023-04-07T04:40:12.961Z,10.77
2023-04-07T04:42:39.652Z,11.47
2023-04-07T04:45:07.319Z,10.17
2023-04-07T04:47:34.118Z,11.00
2023-04-07T04:50:00.950Z,13.20
2023-04-07T04:52:28.767Z,10.77
2023-04-07T04:54:55.636Z,11.67
2023-04-07T04:57:22.311Z,11.90
2023-04-07T04:59:49.086Z,11.23
2023-04-07T05:02:16.363Z,12.30
2023-04-07T05:04:43.423Z,11.77
2023-04-07T05:07:10.474Z,12.00
2023-04-07T05:09:37.194Z,11.60
2023-04-07T05:12:04.036Z,9.60
2023-04-07T05:14:30.752Z,11.23
2023-04-07T05:16:57.581Z,11.23
2023-04-07T05:19:24.336Z,12.10
2023-04-07T05:21:51.079Z,10.83
2023-04-07T05:24:17.851Z,11.97
2023-04-07T05:26:44.508Z,12.50
2023-04-07T05:29:11.342Z,11.47
2023-04-07T05:31:38.114Z,11.67
2023-04-07T05:34:04.884Z,10.57
2023-04-07T05:36:31.852Z,10.87
2023-04-07T05:38:58.669Z,11.07
2023-04-07T05:41:25.432Z,10.60
2023-04-07T05:43:52.450Z,10.63
2023-04-07T05:46:19.371Z,10.13
2023-04-07T05:48:46.313Z,11.30
2023-04-07T05:51:13.114Z,11.37
2023-04-07T05:53:39.863Z,11.70
2023-04-07T05:56:07.250Z,12.43
2023-04-07T05:58:34.013Z,12.27
2023-04-07T06:01:00.775Z,11.10
2023-04-07T06:03:27.667Z,12.30
2023-04-07T06:05:54.486Z,12.63
2023-04-07T06:08:21.552Z,12.20
2023-04-07T06:10:48.287Z,12.83
2023-04-07T06:13:15.096Z,12.03
2023-04-07T06:15:41.914Z,12.23
2023-04-07T06:18:08.675Z,13.73
2023-04-07T06:20:35.888Z,12.70
2023-04-07T06:23:02.697Z,13.37
2023-04-07T06:25:29.395Z,11.83
2023-04-07T06:27:56.464Z,12.80
2023-04-07T06:30:23.205Z,11.60
2023-04-07T06:32:49.975Z,13.20
2023-04-07T06:35:16.707Z,12.27
2023-04-07T06:37:43.379Z,11.20
2023-04-07T06:40:10.337Z,13.60
2023-04-07T06:42:37.041Z,12.00
2023-04-07T06:45:03.829Z,11.73
2023-04-07T06:47:30.673Z,13.03
2023-04-07T06:49:57.474Z,12.83
2023-04-07T06:52:24.192Z,11.50
2023-04-07T06:54:50.955Z,11.70
2023-04-07T06:57:17.695Z,12.30
2023-04-07T06:59:44.647Z,12.10
2023-04-07T07:02:11.453Z,13.10
2023-04-07T07:04:38.847Z,13.13
2023-04-07T07:07:05.880Z,12.17
2023-04-07T07:09:32.623Z,12.40
2023-04-07T07:11:59.372Z,13.00
2023-04-07T07:14:26.068Z,14.40
2023-04-07T07:16:52.804Z,14.30
2023-04-07T07:19:19.518Z,13.23
2023-04-07T07:21:46.258Z,11.93
2023-04-07T07:24:13.153Z,13.07
2023-04-07T07:26:43.483Z,13.10
2023-04-07T07:29:10.921Z,13.70
2023-04-07T07:31:37.613Z,16.33
2023-04-07T07:34:04.329Z,13.20
2023-04-07T07:36:32.296Z,12.60
2023-04-07T07:38:59.176Z,11.33
2023-04-07T07:41:26.467Z,12.50
2023-04-07T07:43:53.378Z,12.47
2023-04-07T07:46:20.192Z,12.43
2023-04-07T07:48:46.995Z,12.10
2023-04-07T07:51:13.685Z,12.40
2023-04-07T07:53:40.663Z,11.60
2023-04-07T07:56:07.417Z,11.97
2023-04-07T07:58:34.161Z,10.67
2023-04-07T08:01:00.951Z,10.40
2023-04-07T08:03:27.875Z,10.23
2023-04-07T08:05:54.935Z,11.53
2023-04-07T08:08:21.721Z,11.37
2023-04-07T08:10:48.968Z,10.83
2023-04-07T08:13:16.071Z,10.20
2023-04-07T08:15:43.128Z,11.40
2023-04-07T08:18:10.038Z,10.47
2023-04-07T08:20:36.836Z,11.33
2023-04-07T08:23:03.972Z,10.63
2023-04-07T08:25:30.813Z,10.60
2023-04-07T08:27:57.593Z,9.53
2023-04-07T08:30:24.535Z,9.57
2023-04-07T08:32:51.376Z,9.10
2023-04-07T08:35:18.242Z,8.97
2023-04-07T08:37:45.242Z,8.67
2023-04-07T08:40:12.775Z,7.50
2023-04-07T08:42:46.011Z,8.50
2023-04-07T08:45:13.790Z,8.80
2023-04-07T08:47:41.989Z,8.83
2023-04-07T08:50:11.084Z,9.27
2023-04-07T08:52:53.389Z,8.03
2023-04-07T08:55:20.342Z,9.07
2023-04-07T08:57:47.888Z,8.33
2023-04-07T09:00:15.555Z,9.43
2023-04-07T09:02:45.441Z,7.40
2023-04-07T09:05:14.822Z,8.23
2023-04-07T09:07:43.246Z,7.93
2023-04-07T09:10:10.445Z,8.47
2023-04-07T09:12:37.637Z,8.37
2023-04-07T09:15:06.922Z,8.60
2023-04-07T09:17:33.757Z,7.07
2023-04-07T09:20:01.364Z,7.27
2023-04-07T09:22:45.797Z,7.10
2023-04-07T09:25:30.253Z,8.40
2023-04-07T09:27:59.573Z,7.70
2023-04-07T09:30:27.224Z,7.63
2023-04-07T09:32:54.410Z,8.03
2023-04-07T09:35:23.285Z,7.93
2023-04-07T09:38:07.897Z,7.23
2023-04-07T09:40:35.501Z,7.27
2023-04-07T09:43:03.933Z,10.10
2023-04-07T09:45:39.420Z,13.13
2023-04-07T09:48:07.761Z,8.23
2023-04-07T09:50:49.284Z,8.00
2023-04-07T09:53:17.025Z,7.63
2023-04-07T09:55:43.998Z,8.17
2023-04-07T09:58:14.142Z,8.43
2023-04-07T10:00:42.473Z,9.33
2023-04-07T10:03:09.670Z,9.47
2023-04-07T10:05:37.045Z,7.47
2023-04-07T10:08:06.223Z,8.00
2023-04-07T10:10:33.576Z,8.87
2023-04-07T10:13:00.682Z,7.63
2023-04-07T10:15:27.708Z,7.50
2023-04-07T10:17:56.895Z,9.13
2023-04-07T10:20:24.492Z,7.83
2023-04-07T10:22:53.826Z,7.53
2023-04-07T10:25:24.406Z,8.73
2023-04-07T10:27:59.459Z,8.70
2023-04-07T10:30:31.669Z,8.63
2023-04-07T10:32:59.074Z,8.70
2023-04-07T10:35:26.100Z,7.90
2023-04-07T10:38:13.736Z,8.83
2023-04-07T10:40:41.898Z,8.67
2023-04-07T10:43:12.423Z,8.97
2023-04-07T10:45:59.890Z,8.80
2023-04-07T10:48:28.730Z,8.40
2023-04-07T10:51:08.361Z,7.70
2023-04-07T10:53:35.417Z,7.97
2023-04-07T10:56:02.791Z,8.20
2023-04-07T10:58:30.764Z,7.47
2023-04-07T11:00:58.037Z,6.87
2023-04-07T11:03:25.943Z,9.70
2023-04-07T11:05:53.040Z,7.50
2023-04-07T11:08:46.207Z,7.07
2023-04-07T11:11:21.663Z,7.73
2023-04-07T11:13:50.266Z,7.10
2023-04-07T11:16:19.224Z,6.17
2023-04-07T11:18:50.142Z,5.83
2023-04-07T11:21:20.019Z,6.50
2023-04-07T11:23:48.447Z,7.00
2023-04-07T11:26:16.569Z,7.13
2023-04-07T11:28:52.545Z,7.20
2023-04-07T11:31:23.630Z,5.40
2023-04-07T11:33:59.396Z,6.40
2023-04-07T11:36:36.016Z,6.90
2023-04-07T11:39:03.239Z,7.90
2023-04-07T11:41:32.745Z,6.47
2023-04-07T11:44:09.901Z,5.97
2023-04-07T11:46:52.029Z,7.30
2023-04-07T11:49:18.787Z,7.17
2023-04-07T11:51:46.071Z,5.70
2023-04-07T11:54:13.055Z,5.87
2023-04-07T11:56:47.403Z,5.07
2023-04-07T11:59:20.980Z,5.43
2023-04-07T12:01:48.460Z,5.60
2023-04-07T12:04:18.716Z,5.20
2023-04-07T12:06:47.493Z,7.70
2023-04-07T12:09:27.881Z,6.63
2023-04-07T12:11:54.816Z,7.90
2023-04-07T12:14:21.807Z,6.97
2023-04-07T12:16:48.744Z,6.87
2023-04-07T12:19:15.587Z,7.87
2023-04-07T12:21:42.369Z,5.83
2023-04-07T12:24:09.104Z,7.87
2023-04-07T12:26:35.875Z,5.83
2023-04-07T12:29:05.402Z,7.30
2023-04-07T12:31:33.000Z,7.90
2023-04-07T12:34:00.089Z,6.50
2023-04-07T12:36:27.625Z,8.17
2023-04-07T12:38:55.051Z,6.57
2023-04-07T12:41:22.091Z,6.40
2023-04-07T12:43:49.178Z,5.87
2023-04-07T12:46:16.754Z,4.87
2023-04-07T12:48:44.319Z,4.23
2023-04-07T12:51:11.141Z,5.73
2023-04-07T12:53:37.893Z,4.97
2023-04-07T12:56:05.034Z,4.93
2023-04-07T12:58:31.846Z,4.47
2023-04-07T13:00:58.794Z,2.87
2023-04-07T13:03:25.701Z,2.83
2023-04-07T13:05:55.024Z,3.80
2023-04-07T13:08:22.096Z,2.27
2023-04-07T13:10:48.913Z,2.40
2023-04-07T13:13:15.737Z,3.00
2023-04-07T13:15:42.491Z,3.30
2023-04-07T13:18:09.328Z,2.77
2023-04-07T13:20:36.130Z,3.20
2023-04-07T13:23:08.193Z,3.50
2023-04-07T13:25:37.615Z,3.10
2023-04-07T13:28:04.676Z,3.00
2023-04-07T13:30:31.731Z,2.83
2023-04-07T13:32:58.629Z,3.20
2023-04-07T13:35:25.912Z,3.70
2023-04-07T13:37:53.061Z,5.00
2023-04-07T13:40:19.896Z,4.13
2023-04-07T13:42:46.607Z,4.80
2023-04-07T13:45:13.401Z,4.97
2023-04-07T13:47:40.132Z,5.20
2023-04-07T13:50:07.439Z,4.60
2023-04-07T13:52:35.531Z,4.13
2023-04-07T13:55:04.064Z,4.80
2023-04-07T13:57:31.306Z,4.50
2023-04-07T13:59:58.213Z,5.30
2023-04-07T14:02:27.954Z,6.30
2023-04-07T14:04:54.937Z,4.37
2023-04-07T14:07:23.099Z,6.10
2023-04-07T14:09:49.946Z,5.23
2023-04-07T14:12:16.788Z,6.50
2023-04-07T14:14:43.627Z,4.37
2023-04-07T14:17:10.747Z,4.00
2023-04-07T14:19:37.572Z,4.00
2023-04-07T14:22:04.326Z,3.53
2023-04-07T14:24:31.252Z,4.50
2023-04-07T14:26:58.265Z,4.73
2023-04-07T14:29:25.117Z,4.63
2023-04-07T14:31:51.870Z,4.20
2023-04-07T14:34:18.672Z,3.67
2023-04-07T14:37:06.220Z,3.67
2023-04-07T14:39:32.998Z,3.93
2023-04-07T14:42:00.741Z,4.70
2023-04-07T14:44:29.079Z,4.83
2023-04-07T14:46:56.199Z,5.27
2023-04-07T14:49:23.392Z,5.80
2023-04-07T14:51:50.588Z,5.10
2023-04-07T14:54:17.344Z,4.67
2023-04-07T14:56:45.124Z,6.10
2023-04-07T14:59:12.014Z,4.57
2023-04-07T15:01:39.900Z,4.37
2023-04-07T15:04:06.731Z,3.73
2023-04-07T15:06:33.801Z,5.03
2023-04-07T15:09:00.852Z,4.67
2023-04-07T15:11:27.765Z,6.30
2023-04-07T15:13:54.855Z,4.77
2023-04-07T15:16:21.651Z,3.83
2023-04-07T15:18:48.776Z,5.60
2023-04-07T15:21:15.937Z,4.73
2023-04-07T15:23:42.992Z,5.43
2023-04-07T15:26:10.161Z,5.70
2023-04-07T15:28:37.484Z,4.83
2023-04-07T15:31:08.654Z,5.30
2023-04-07T15:33:39.727Z,5.30
2023-04-07T15:36:08.007Z,4.47
2023-04-07T15:38:35.545Z,5.13
2023-04-07T15:41:02.403Z,4.67
2023-04-07T15:43:29.672Z,4.63
2023-04-07T15:45:56.563Z,6.37
2023-04-07T15:48:23.587Z,4.03
2023-04-07T15:50:50.432Z,4.40
2023-04-07T15:53:17.183Z,4.67
2023-04-07T15:55:44.293Z,4.83
2023-04-07T15:58:11.081Z,4.07
2023-04-07T16:00:39.112Z,4.60
2023-04-07T16:03:06.330Z,4.70
2023-04-07T16:05:33.472Z,3.83
2023-04-07T16:08:00.431Z,4.00
2023-04-07T16:10:27.175Z,3.50
2023-04-07T16:12:53.976Z,3.30
2023-04-07T16:15:36.459Z,3.07
2023-04-07T16:18:07.745Z,2.87
2023-04-07T16:20:34.624Z,3.60
2023-04-07T16:23:01.817Z,3.77
2023-04-07T16:25:28.931Z,4.60
2023-04-07T16:27:55.697Z,10.40
2023-04-07T16:30:22.464Z,3.50
2023-04-07T16:32:49.316Z,3.67
2023-04-07T16:35:16.470Z,3.87
2023-04-07T16:37:45.824Z,3.30
2023-04-07T16:40:13.398Z,3.50
2023-04-07T16:42:40.882Z,3.40
2023-04-07T16:45:08.619Z,4.13
2023-04-07T16:47:35.760Z,3.33
2023-04-07T16:50:04.254Z,3.60
2023-04-07T16:52:31.763Z,3.57
2023-04-07T16:54:59.344Z,4.10
2023-04-07T16:57:26.186Z,6.23
2023-04-07T16:59:53.030Z,5.07
2023-04-07T17:02:20.386Z,3.30
2023-04-07T17:04:47.403Z,4.13
2023-04-07T17:07:14.172Z,4.50
2023-04-07T17:09:41.233Z,5.17
2023-04-07T17:12:07.982Z,4.13
2023-04-07T17:14:35.051Z,4.27
2023-04-07T17:17:02.335Z,4.90
2023-04-07T17:19:29.277Z,4.70
2023-04-07T17:21:56.478Z,5.00
2023-04-07T17:24:23.786Z,4.63
2023-04-07T17:26:50.937Z,6.20
2023-04-07T17:29:17.936Z,4.80
2023-04-07T17:31:44.702Z,5.27
2023-04-07T17:34:11.989Z,4.20
2023-04-07T17:36:38.810Z,4.40
2023-04-07T17:39:05.680Z,3.70
2023-04-07T17:41:38.420Z,3.60
2023-04-07T17:44:05.817Z,4.47
2023-04-07T17:46:32.989Z,4.73
2023-04-07T17:48:59.901Z,5.80
2023-04-07T17:51:27.690Z,4.00
2023-04-07T17:53:54.668Z,3.90
2023-04-07T17:56:21.685Z,4.67
2023-04-07T17:58:48.708Z,4.33
2023-04-07T18:01:17.016Z,4.33
2023-04-07T18:03:44.406Z,4.00
2023-04-07T18:06:16.055Z,3.77
2023-04-07T18:08:44.934Z,4.97
2023-04-07T18:11:11.703Z,4.43
2023-04-07T18:13:38.426Z,4.03
2023-04-07T18:16:09.308Z,5.10
2023-04-07T18:18:38.038Z,6.20
2023-04-07T18:21:08.652Z,3.90
2023-04-07T18:23:35.482Z,4.07
2023-04-07T18:26:04.791Z,4.40
2023-04-07T18:28:31.977Z,4.13
2023-04-07T18:31:07.727Z,3.80
2023-04-07T18:33:36.326Z,3.97
2023-04-07T18:36:06.637Z,4.33
2023-04-07T18:38:38.059Z,4.43
2023-04-07T18:41:06.818Z,3.80
2023-04-07T18:43:33.604Z,3.37
2023-04-07T18:46:00.418Z,4.20
2023-04-07T18:48:27.243Z,3.30
2023-04-07T18:50:55.096Z,3.60
2023-04-07T18:53:22.898Z,3.50
2023-04-07T18:55:50.355Z,3.43
2023-04-07T18:58:17.187Z,3.70
2023-04-07T19:00:44.567Z,4.20
2023-04-07T19:03:11.904Z,3.43
2023-04-07T19:05:39.848Z,3.90
2023-04-07T19:08:06.958Z,3.80
2023-04-07T19:10:34.907Z,3.70
2023-04-07T19:13:01.884Z,4.10
2023-04-07T19:15:32.817Z,3.60
2023-04-07T19:18:02.018Z,4.77
2023-04-07T19:20:33.862Z,5.00
2023-04-07T19:23:02.114Z,3.50
2023-04-07T19:25:29.818Z,4.30
2023-04-07T19:27:57.204Z,4.47
2023-04-07T19:30:24.350Z,4.73
2023-04-07T19:32:51.181Z,4.57
2023-04-07T19:35:18.254Z,3.60
2023-04-07T19:37:47.410Z,3.83
2023-04-07T19:40:15.053Z,4.40
2023-04-07T19:42:41.928Z,7.20
2023-04-07T19:45:09.531Z,4.90
2023-04-07T19:47:37.201Z,5.80
2023-04-07T19:50:05.476Z,5.23
2023-04-07T19:52:33.020Z,4.90
2023-04-07T19:55:01.067Z,4.33
2023-04-07T19:57:29.047Z,4.30
2023-04-07T19:59:56.150Z,5.07
2023-04-07T20:02:23.431Z,5.27
2023-04-07T20:04:50.307Z,4.60
2023-04-07T20:07:17.194Z,5.70
2023-04-07T20:09:44.786Z,5.20
2023-04-07T20:12:11.750Z,4.90
2023-04-07T20:14:38.625Z,4.33
2023-04-07T20:17:05.609Z,5.10
2023-04-07T20:19:32.656Z,5.40
2023-04-07T20:21:59.492Z,6.03
2023-04-07T20:24:26.388Z,5.00
2023-04-07T20:26:53.098Z,5.57
2023-04-07T20:29:21.739Z,5.63
2023-04-07T20:31:49.239Z,5.00
2023-04-07T20:34:16.637Z,4.30
2023-04-07T20:36:43.570Z,4.70
2023-04-07T20:39:10.399Z,7.10
2023-04-07T20:41:37.578Z,5.50
2023-04-07T20:44:04.451Z,5.03
2023-04-07T20:46:32.650Z,5.60
2023-04-07T20:48:59.678Z,5.37
2023-04-07T20:51:26.437Z,5.57
2023-04-07T20:53:53.159Z,5.90
2023-04-07T20:56:19.945Z,5.90
2023-04-07T20:58:48.233Z,6.37
2023-04-07T21:01:15.738Z,5.80
2023-04-07T21:03:42.950Z,6.63
2023-04-07T21:06:09.898Z,6.53
2023-04-07T21:08:36.618Z,6.87
2023-04-07T21:11:03.414Z,6.60
2023-04-07T21:13:30.368Z,7.23
2023-04-07T21:15:59.186Z,7.20
2023-04-07T21:18:27.246Z,6.40
2023-04-07T21:20:56.787Z,6.20
2023-04-07T21:23:23.610Z,7.47
2023-04-07T21:25:50.391Z,7.10
2023-04-07T21:28:17.137Z,6.97
2023-04-07T21:30:43.974Z,8.07
2023-04-07T21:33:11.251Z,7.90
2023-04-07T21:35:38.026Z,7.27
2023-04-07T21:38:04.868Z,7.10
2023-04-07T21:40:31.663Z,7.87
2023-04-07T21:42:58.466Z,9.63
2023-04-07T21:45:25.248Z,7.90
2023-04-07T21:47:52.106Z,6.90
2023-04-07T21:50:18.974Z,7.13
2023-04-07T21:52:45.879Z,14.50
2023-04-07T21:55:12.813Z,9.53
2023-04-07T21:57:39.620Z,10.90
2023-04-07T22:00:07.343Z,7.80
2023-04-07T22:02:34.281Z,8.03
2023-04-07T22:05:01.335Z,7.03
2023-04-07T22:07:28.024Z,6.90
2023-04-07T22:09:54.765Z,6.37
2023-04-07T22:12:21.559Z,7.67
2023-04-07T22:14:48.427Z,6.60
2023-04-07T22:17:16.250Z,7.67
2023-04-07T22:19:43.414Z,8.47
2023-04-07T22:22:10.489Z,8.07
2023-04-07T22:24:37.279Z,7.83
2023-04-07T22:27:03.996Z,7.40
2023-04-07T22:29:30.856Z,6.77
2023-04-07T22:31:57.793Z,6.70
2023-04-07T22:34:24.615Z,6.67
2023-04-07T22:36:51.370Z,7.43
2023-04-07T22:39:18.136Z,7.10
2023-04-07T22:41:44.856Z,6.70
2023-04-07T22:44:11.552Z,7.23
2023-04-07T22:46:38.411Z,7.70
2023-04-07T22:49:05.393Z,7.73
2023-04-07T22:51:32.263Z,9.97
2023-04-07T22:53:58.943Z,8.23
2023-04-07T22:56:27.226Z,8.10
2023-04-07T22:58:54.039Z,7.80
2023-04-07T23:01:21.086Z,8.73
2023-04-07T23:03:47.951Z,7.90
2023-04-07T23:06:14.809Z,9.80
2023-04-07T23:08:41.668Z,8.70
2023-04-07T23:11:10.077Z,9.87
2023-04-07T23:13:38.052Z,11.83
2023-04-07T23:16:06.354Z,9.97
2023-04-07T23:18:33.218Z,9.50
2023-04-07T23:21:00.130Z,9.77
2023-04-07T23:23:27.187Z,9.20
2023-04-07T23:25:53.971Z,10.43
2023-04-07T23:28:21.137Z,10.67
2023-04-07T23:30:48.002Z,10.73
2023-04-07T23:33:14.981Z,10.50
2023-04-07T23:35:41.858Z,10.50
2023-04-07T23:38:09.295Z,10.60
2023-04-07T23:40:36.489Z,10.13
2023-04-07T23:43:03.333Z,11.43
2023-04-07T23:45:30.503Z,11.20
2023-04-07T23:47:57.383Z,10.30
2023-04-07T23:50:25.108Z,11.13
2023-04-07T23:52:51.971Z,10.70
2023-04-07T23:55:18.760Z,12.10
2023-04-07T23:57:45.767Z,12.30
